createdAt,value
2022-10-26T00:02:24.427Z,100.00
2022-10-26T00:05:12.319Z,100.00
2022-10-26T00:08:00.234Z,100.00
2022-10-26T00:10:48.111Z,100.00
2022-10-26T00:13:38.769Z,100.00
2022-10-26T00:16:28.499Z,100.00
2022-10-26T00:19:16.452Z,100.00
2022-10-26T00:22:04.629Z,100.00
2022-10-26T00:24:52.551Z,100.00
2022-10-26T00:27:40.596Z,100.00
2022-10-26T00:30:29.901Z,100.00
2022-10-26T00:33:18.058Z,100.00
2022-10-26T00:36:06.315Z,100.00
2022-10-26T00:38:55.681Z,100.00
2022-10-26T00:41:43.590Z,100.00
2022-10-26T00:44:57.623Z,100.00
2022-10-26T00:47:50.039Z,100.00
2022-10-26T00:50:42.309Z,100.00
2022-10-26T00:53:31.105Z,100.00
2022-10-26T00:56:19.776Z,100.00
2022-10-26T00:59:10.196Z,100.00
2022-10-26T01:01:58.358Z,100.00
2022-10-26T01:04:48.626Z,100.00
2022-10-26T01:07:37.649Z,100.00
2022-10-26T01:10:26.788Z,100.00
2022-10-26T01:13:16.589Z,100.00
2022-10-26T01:16:17.111Z,100.00
2022-10-26T01:19:34.563Z,100.00
2022-10-26T01:22:27.611Z,100.00
2022-10-26T01:25:33.023Z,100.00
2022-10-26T01:28:34.113Z,100.00
2022-10-26T01:31:31.339Z,100.00
2022-10-26T01:34:23.853Z,100.00
2022-10-26T01:37:14.809Z,100.00
2022-10-26T01:40:10.732Z,100.00
2022-10-26T01:43:03.459Z,100.00
2022-10-26T01:45:53.325Z,100.00
2022-10-26T01:48:44.178Z,100.00
2022-10-26T01:51:33.052Z,100.00
2022-10-26T01:54:20.993Z,100.00
2022-10-26T01:57:12.302Z,100.00
2022-10-26T02:00:10.343Z,100.00
2022-10-26T02:03:05.380Z,100.00
2022-10-26T02:06:04.072Z,100.00
2022-10-26T02:08:59.211Z,100.00
2022-10-26T02:11:50.358Z,100.00
2022-10-26T02:14:48.513Z,100.00
2022-10-26T02:17:47.044Z,100.00
2022-10-26T02:20:40.191Z,100.00
2022-10-26T02:23:31.320Z,100.00
2022-10-26T02:26:23.342Z,100.00
2022-10-26T02:29:16.457Z,100.00
2022-10-26T02:32:05.911Z,100.00
2022-10-26T02:34:56.542Z,100.00
2022-10-26T02:37:47.587Z,100.00
2022-10-26T02:40:38.548Z,100.00
2022-10-26T02:43:29.116Z,100.00
2022-10-26T02:46:21.541Z,100.00
2022-10-26T02:49:09.607Z,100.00
2022-10-26T02:52:05.578Z,100.00
2022-10-26T02:55:00.284Z,100.00
2022-10-26T02:57:54.916Z,100.00
2022-10-26T03:00:43.639Z,100.00
2022-10-26T03:03:31.710Z,100.00
2022-10-26T03:06:23.821Z,100.00
2022-10-26T03:09:11.816Z,100.00
2022-10-26T03:11:59.793Z,100.00
2022-10-26T03:14:48.981Z,100.00
2022-10-26T03:17:36.892Z,100.00
2022-10-26T03:20:24.840Z,100.00
2022-10-26T03:23:12.817Z,100.00
2022-10-26T03:26:01.276Z,100.00
2022-10-26T03:28:49.142Z,100.00
2022-10-26T03:31:38.373Z,100.00
2022-10-26T03:34:26.442Z,100.00
2022-10-26T03:37:14.422Z,100.00
2022-10-26T03:40:02.326Z,100.00
2022-10-26T03:42:50.489Z,100.00
2022-10-26T03:45:38.586Z,100.00
2022-10-26T03:48:27.985Z,100.00
2022-10-26T03:51:15.884Z,100.00
2022-10-26T03:54:03.853Z,100.00
2022-10-26T03:56:55.105Z,100.00
2022-10-26T03:59:43.338Z,100.00
2022-10-26T04:02:31.217Z,100.00
2022-10-26T04:05:20.516Z,100.00
2022-10-26T04:08:09.672Z,100.00
2022-10-26T04:10:59.929Z,100.00
2022-10-26T04:13:50.314Z,100.00
2022-10-26T04:16:38.298Z,100.00
2022-10-26T04:19:26.206Z,100.00
2022-10-26T04:22:15.589Z,100.00
2022-10-26T04:25:03.516Z,100.00
2022-10-26T04:27:51.661Z,100.00
2022-10-26T04:30:40.633Z,100.00
2022-10-26T04:33:28.597Z,100.00
2022-10-26T04:36:16.558Z,100.00
2022-10-26T04:39:06.037Z,100.00
2022-10-26T04:41:55.159Z,100.00
2022-10-26T04:44:43.140Z,100.00
2022-10-26T04:47:31.001Z,100.00
2022-10-26T04:50:18.972Z,100.00
2022-10-26T04:53:07.654Z,100.00
2022-10-26T04:56:00.915Z,100.00
2022-10-26T04:58:48.831Z,100.00
2022-10-26T05:01:36.768Z,100.00
2022-10-26T05:04:24.837Z,100.00
2022-10-26T05:07:12.715Z,100.00
2022-10-26T05:10:00.641Z,100.00
2022-10-26T05:12:52.909Z,100.00
2022-10-26T05:15:40.862Z,100.00
2022-10-26T05:18:28.779Z,100.00
2022-10-26T05:21:19.483Z,100.00
2022-10-26T05:24:10.193Z,100.00
2022-10-26T05:27:00.810Z,100.00
2022-10-26T05:29:50.062Z,100.00
2022-10-26T05:32:37.917Z,100.00
2022-10-26T05:35:27.113Z,100.00
2022-10-26T05:38:16.878Z,100.00
2022-10-26T05:41:04.924Z,100.00
2022-10-26T05:43:52.930Z,100.00
2022-10-26T05:46:42.231Z,100.00
2022-10-26T05:49:30.140Z,100.00
2022-10-26T05:52:18.038Z,100.00
2022-10-26T05:58:00.489Z,100.00
2022-10-26T06:01:00.757Z,100.00
2022-10-26T06:04:03.995Z,100.00
2022-10-26T06:06:39.809Z,100.00
2022-10-26T06:09:10.485Z,100.00
2022-10-26T06:11:38.758Z,100.00
2022-10-26T06:14:07.556Z,100.00
2022-10-26T06:16:46.361Z,100.00
2022-10-26T06:19:28.013Z,100.00
2022-10-26T06:22:05.457Z,100.00
2022-10-26T06:24:40.113Z,100.00
2022-10-26T06:27:20.467Z,100.00
2022-10-26T06:29:56.812Z,100.00
2022-10-26T06:32:25.415Z,100.00
2022-10-26T06:35:04.858Z,100.00
2022-10-26T06:37:36.757Z,100.00
2022-10-26T06:40:06.306Z,100.00
2022-10-26T06:42:34.419Z,100.00
2022-10-26T06:45:02.628Z,100.00
2022-10-26T06:47:39.086Z,100.00
2022-10-26T06:50:20.325Z,100.00
2022-10-26T06:52:56.399Z,100.00
2022-10-26T06:55:26.713Z,100.00
2022-10-26T06:57:54.514Z,100.00
2022-10-26T07:00:25.094Z,100.00
2022-10-26T07:02:53.395Z,100.00
2022-10-26T07:05:22.798Z,100.00
2022-10-26T07:07:50.692Z,100.00
2022-10-26T07:10:18.452Z,100.00
2022-10-26T07:12:46.200Z,100.00
2022-10-26T07:15:13.825Z,100.00
2022-10-26T07:17:45.892Z,100.00
2022-10-26T07:20:14.421Z,100.00
2022-10-26T07:22:43.750Z,100.00
2022-10-26T07:25:12.259Z,100.00
2022-10-26T07:27:40.185Z,100.00
2022-10-26T07:30:08.862Z,100.00
2022-10-26T07:32:36.618Z,100.00
2022-10-26T07:35:04.450Z,100.00
2022-10-26T07:37:32.212Z,100.00
2022-10-26T07:40:05.680Z,100.00
2022-10-26T07:42:36.416Z,100.00
2022-10-26T07:45:05.194Z,100.00
2022-10-26T07:47:32.913Z,100.00
2022-10-26T07:50:00.536Z,100.00
2022-10-26T07:52:28.135Z,100.00
2022-10-26T07:54:55.735Z,100.00
2022-10-26T07:57:24.699Z,100.00
2022-10-26T07:59:52.484Z,100.00
2022-10-26T08:02:20.781Z,100.00
2022-10-26T08:04:48.390Z,100.00
2022-10-26T08:07:16.019Z,100.00
2022-10-26T08:09:43.666Z,100.00
2022-10-26T08:12:13.477Z,100.00
2022-10-26T08:14:42.583Z,100.00
2022-10-26T08:17:10.664Z,100.00
2022-10-26T08:19:38.547Z,100.00
2022-10-26T08:22:06.432Z,100.00
2022-10-26T08:24:34.113Z,100.00
2022-10-26T08:27:01.747Z,100.00
2022-10-26T08:29:29.504Z,100.00
2022-10-26T08:31:58.691Z,100.00
2022-10-26T08:34:26.343Z,100.00
2022-10-26T08:36:53.960Z,100.00
2022-10-26T08:39:21.846Z,100.00
2022-10-26T08:41:53.414Z,100.00
2022-10-26T08:44:26.866Z,100.00
2022-10-26T08:46:59.476Z,100.00
2022-10-26T08:49:31.425Z,100.00
2022-10-26T08:52:02.209Z,100.00
2022-10-26T08:54:36.628Z,100.00
2022-10-26T08:57:12.900Z,100.00
2022-10-26T08:59:47.834Z,100.00
2022-10-26T09:02:18.560Z,100.00
2022-10-26T09:04:46.483Z,100.00
2022-10-26T09:07:25.837Z,100.00
2022-10-26T09:10:01.667Z,100.00
2022-10-26T09:12:38.726Z,100.00
2022-10-26T09:15:15.939Z,100.00
2022-10-26T09:17:52.198Z,100.00
2022-10-26T09:20:40.617Z,100.00
2022-10-26T09:23:19.746Z,100.00
2022-10-26T09:25:52.642Z,100.00
2022-10-26T09:28:20.626Z,100.00
2022-10-26T09:30:49.394Z,100.00
2022-10-26T09:33:21.492Z,100.00
2022-10-26T09:35:52.756Z,100.00
2022-10-26T09:38:26.220Z,100.00
2022-10-26T09:40:58.849Z,100.00
2022-10-26T09:43:32.826Z,100.00
2022-10-26T09:46:00.461Z,100.00
2022-10-26T09:48:37.945Z,99.19
2022-10-26T09:51:05.942Z,100.00
2022-10-26T09:53:34.070Z,100.00
2022-10-26T09:56:06.505Z,100.00
2022-10-26T09:58:38.331Z,100.00
2022-10-26T10:01:06.161Z,100.00
2022-10-26T10:03:35.132Z,99.97
2022-10-26T10:06:17.666Z,98.71
2022-10-26T10:08:46.531Z,100.00
2022-10-26T10:11:15.775Z,97.46
2022-10-26T10:13:45.649Z,93.38
2022-10-26T10:16:21.385Z,94.57
2022-10-26T10:18:56.852Z,94.00
2022-10-26T10:21:35.599Z,96.56
2022-10-26T10:24:03.256Z,100.00
2022-10-26T10:26:30.878Z,99.43
2022-10-26T10:28:59.738Z,96.52
2022-10-26T10:31:31.856Z,96.79
2022-10-26T10:34:01.227Z,96.99
2022-10-26T10:36:31.649Z,98.90
2022-10-26T10:39:00.257Z,98.80
2022-10-26T10:41:30.311Z,99.48
2022-10-26T10:44:06.759Z,96.58
2022-10-26T10:46:34.708Z,98.84
2022-10-26T10:49:05.880Z,99.20
2022-10-26T10:51:39.519Z,99.47
2022-10-26T10:54:21.789Z,99.68
2022-10-26T10:56:53.355Z,99.40
2022-10-26T10:59:39.487Z,100.00
2022-10-26T11:02:32.280Z,100.00
2022-10-26T11:05:20.855Z,100.00
2022-10-26T11:07:57.136Z,98.80
2022-10-26T11:10:30.739Z,100.00
2022-10-26T11:13:01.828Z,99.81
2022-10-26T11:15:33.805Z,100.00
2022-10-26T11:18:07.394Z,100.00
2022-10-26T11:20:40.646Z,100.00
2022-10-26T11:23:13.228Z,100.00
2022-10-26T11:25:49.120Z,100.00
2022-10-26T11:28:21.262Z,100.00
2022-10-26T11:30:56.404Z,100.00
2022-10-26T11:33:30.345Z,100.00
2022-10-26T11:36:04.109Z,97.52
2022-10-26T11:38:46.255Z,94.75
2022-10-26T11:41:30.813Z,98.55
2022-10-26T11:44:06.781Z,97.05
2022-10-26T11:46:38.969Z,96.32
2022-10-26T11:49:12.781Z,97.54
2022-10-26T11:51:45.772Z,99.81
2022-10-26T11:54:18.001Z,98.33
2022-10-26T11:56:49.484Z,96.72
2022-10-26T11:59:21.109Z,97.46
2022-10-26T12:01:51.116Z,97.61
2022-10-26T12:04:22.496Z,97.08
2022-10-26T12:06:53.724Z,100.00
2022-10-26T12:09:24.927Z,99.38
2022-10-26T12:11:58.819Z,97.82
2022-10-26T12:14:35.088Z,100.00
2022-10-26T12:17:11.141Z,98.98
2022-10-26T12:19:48.860Z,99.50
2022-10-26T12:22:19.930Z,96.91
2022-10-26T12:25:05.426Z,99.11
2022-10-26T12:27:50.209Z,98.83
2022-10-26T12:30:27.898Z,100.00
2022-10-26T12:32:56.881Z,97.13
2022-10-26T12:35:39.240Z,96.99
2022-10-26T12:38:49.712Z,95.30
2022-10-26T12:41:24.100Z,95.97
2022-10-26T12:43:55.835Z,96.44
2022-10-26T12:46:39.340Z,95.25
2022-10-26T12:49:48.172Z,92.51
2022-10-26T12:52:26.831Z,92.27
2022-10-26T12:55:14.512Z,90.36
2022-10-26T12:57:54.110Z,89.38
2022-10-26T13:00:25.324Z,89.97
2022-10-26T13:03:08.867Z,91.41
2022-10-26T13:06:02.543Z,91.06
2022-10-26T13:08:41.168Z,90.22
2022-10-26T13:11:17.315Z,92.17
2022-10-26T13:13:53.263Z,96.60
2022-10-26T13:16:21.136Z,97.79
2022-10-26T13:18:49.407Z,98.52
2022-10-26T13:21:18.580Z,98.44
2022-10-26T13:23:48.450Z,99.86
2022-10-26T13:26:17.882Z,100.00
2022-10-26T13:28:50.090Z,97.82
2022-10-26T13:31:58.309Z,98.39
2022-10-26T13:34:29.243Z,98.81
2022-10-26T13:37:06.139Z,97.81
2022-10-26T13:39:38.308Z,97.96
2022-10-26T13:42:08.112Z,95.43
2022-10-26T13:44:45.705Z,96.17
2022-10-26T13:47:17.569Z,93.89
2022-10-26T13:49:48.742Z,93.45
2022-10-26T13:52:21.190Z,91.17
2022-10-26T13:54:52.334Z,91.24
2022-10-26T13:57:23.903Z,92.88
2022-10-26T13:59:53.655Z,94.83
2022-10-26T14:02:46.379Z,92.90
2022-10-26T14:05:16.879Z,94.00
2022-10-26T14:07:50.460Z,93.42
2022-10-26T14:10:27.807Z,94.14
2022-10-26T14:12:55.505Z,91.11
2022-10-26T14:15:28.573Z,88.61
2022-10-26T14:17:56.860Z,89.47
2022-10-26T14:20:26.719Z,90.82
2022-10-26T14:22:54.502Z,91.61
2022-10-26T14:25:35.789Z,91.56
2022-10-26T14:28:23.075Z,92.66
2022-10-26T14:30:52.481Z,94.92
2022-10-26T14:33:21.498Z,92.23
2022-10-26T14:35:49.775Z,95.09
2022-10-26T14:38:22.404Z,94.91
2022-10-26T14:40:51.913Z,94.59
2022-10-26T14:43:23.223Z,96.88
2022-10-26T14:45:54.652Z,97.08
2022-10-26T14:48:26.171Z,96.88
2022-10-26T14:51:04.889Z,96.51
2022-10-26T14:53:38.818Z,100.00
2022-10-26T14:56:17.813Z,97.99
2022-10-26T14:58:45.429Z,97.49
2022-10-26T15:01:31.574Z,100.00
2022-10-26T15:04:03.432Z,98.55
2022-10-26T15:06:42.485Z,100.00
2022-10-26T15:09:43.453Z,100.00
2022-10-26T15:12:24.103Z,100.00
2022-10-26T15:14:52.366Z,100.00
2022-10-26T15:17:27.497Z,100.00
2022-10-26T15:19:56.320Z,100.00
2022-10-26T15:22:30.925Z,100.00
2022-10-26T15:25:01.721Z,100.00
2022-10-26T15:27:29.412Z,100.00
2022-10-26T15:30:15.873Z,100.00
2022-10-26T15:32:44.878Z,100.00
2022-10-26T15:35:31.929Z,100.00
2022-10-26T15:38:00.987Z,100.00
2022-10-26T15:40:31.835Z,100.00
2022-10-26T15:43:01.699Z,100.00
2022-10-26T15:45:33.040Z,100.00
2022-10-26T15:48:19.386Z,100.00
2022-10-26T15:50:47.000Z,100.00
2022-10-26T15:53:19.525Z,100.00
2022-10-26T15:55:47.459Z,100.00
2022-10-26T15:58:16.222Z,100.00
2022-10-26T16:00:44.095Z,100.00
2022-10-26T16:03:17.023Z,100.00
2022-10-26T16:05:44.697Z,100.00
2022-10-26T16:08:17.770Z,100.00
2022-10-26T16:10:46.892Z,100.00
2022-10-26T16:13:15.245Z,100.00
2022-10-26T16:15:43.235Z,100.00
2022-10-26T16:18:10.928Z,100.00
2022-10-26T16:20:40.227Z,100.00
2022-10-26T16:23:07.911Z,100.00
2022-10-26T16:25:41.228Z,100.00
2022-10-26T16:28:10.565Z,100.00
2022-10-26T16:30:38.249Z,100.00
2022-10-26T16:33:05.912Z,100.00
2022-10-26T16:35:33.690Z,100.00
2022-10-26T16:38:02.741Z,100.00
2022-10-26T16:40:30.370Z,100.00
2022-10-26T16:42:57.987Z,100.00
2022-10-26T16:45:25.632Z,100.00
2022-10-26T16:47:53.594Z,100.00
2022-10-26T16:50:22.129Z,100.00
2022-10-26T16:52:49.808Z,100.00
2022-10-26T16:55:18.915Z,100.00
2022-10-26T16:57:46.620Z,100.00
2022-10-26T17:00:14.715Z,100.00
2022-10-26T17:02:42.449Z,100.00
2022-10-26T17:05:10.362Z,100.00
2022-10-26T17:07:37.982Z,100.00
2022-10-26T17:10:06.378Z,100.00
2022-10-26T17:12:35.416Z,100.00
2022-10-26T17:15:03.063Z,100.00
2022-10-26T17:17:30.836Z,100.00
2022-10-26T17:19:58.837Z,100.00
2022-10-26T17:22:26.526Z,100.00
2022-10-26T17:24:54.231Z,100.00
2022-10-26T17:27:22.984Z,100.00
2022-10-26T17:29:51.922Z,100.00
2022-10-26T17:32:19.576Z,100.00
2022-10-26T17:34:47.259Z,100.00
2022-10-26T17:37:14.987Z,100.00
2022-10-26T17:39:42.662Z,100.00
2022-10-26T17:42:10.300Z,100.00
2022-10-26T17:44:38.980Z,100.00
2022-10-26T17:47:08.729Z,100.00
2022-10-26T17:49:36.559Z,100.00
2022-10-26T17:52:05.841Z,100.00
2022-10-26T17:54:33.582Z,100.00
2022-10-26T17:57:01.994Z,100.00
2022-10-26T17:59:29.848Z,100.00
2022-10-26T18:01:57.650Z,100.00
2022-10-26T18:04:26.705Z,100.00
2022-10-26T18:06:54.407Z,100.00
2022-10-26T18:09:22.426Z,100.00
2022-10-26T18:11:52.148Z,100.00
2022-10-26T18:14:22.650Z,100.00
2022-10-26T18:16:50.335Z,100.00
2022-10-26T18:19:17.972Z,100.00
2022-10-26T18:21:46.928Z,100.00
2022-10-26T18:24:14.544Z,100.00
2022-10-26T18:26:42.265Z,100.00
2022-10-26T18:29:12.208Z,100.00
2022-10-26T18:31:39.869Z,100.00
2022-10-26T18:34:07.661Z,100.00
2022-10-26T18:36:35.375Z,100.00
2022-10-26T18:39:04.837Z,100.00
2022-10-26T18:41:32.499Z,100.00
2022-10-26T18:44:01.532Z,100.00
2022-10-26T18:46:30.964Z,100.00
2022-10-26T18:49:00.611Z,100.00
2022-10-26T18:51:32.350Z,100.00
2022-10-26T18:54:00.920Z,100.00
2022-10-26T18:56:30.041Z,100.00
2022-10-26T18:58:59.684Z,100.00
2022-10-26T19:01:29.793Z,100.00
2022-10-26T19:03:59.249Z,100.00
2022-10-26T19:06:29.807Z,100.00
2022-10-26T19:08:58.139Z,100.00
2022-10-26T19:11:27.748Z,100.00
2022-10-26T19:13:57.509Z,100.00
2022-10-26T19:16:45.060Z,100.00
2022-10-26T19:19:14.605Z,100.00
2022-10-26T19:21:42.352Z,100.00
2022-10-26T19:24:13.898Z,100.00
2022-10-26T19:26:43.695Z,100.00
2022-10-26T19:29:15.144Z,100.00
2022-10-26T19:31:44.231Z,100.00
2022-10-26T19:34:13.289Z,100.00
2022-10-26T19:36:44.486Z,100.00
2022-10-26T19:39:12.941Z,100.00
2022-10-26T19:41:40.660Z,100.00
2022-10-26T19:44:08.387Z,100.00
2022-10-26T19:46:38.012Z,100.00
2022-10-26T19:49:05.662Z,100.00
2022-10-26T19:51:33.760Z,100.00
2022-10-26T19:54:03.876Z,100.00
2022-10-26T19:56:32.114Z,100.00
2022-10-26T19:58:59.864Z,100.00
2022-10-26T20:01:27.584Z,100.00
2022-10-26T20:04:15.245Z,100.00
2022-10-26T20:07:03.133Z,100.00
2022-10-26T20:09:51.163Z,100.00
2022-10-26T20:12:39.064Z,100.00
2022-10-26T20:15:26.986Z,100.00
2022-10-26T20:18:15.286Z,100.00
2022-10-26T20:21:07.658Z,100.00
2022-10-26T20:23:55.554Z,100.00
2022-10-26T20:26:43.468Z,100.00
2022-10-26T20:29:31.394Z,100.00
2022-10-26T20:32:19.512Z,100.00
2022-10-26T20:35:08.098Z,100.00
2022-10-26T20:37:57.951Z,100.00
2022-10-26T20:40:51.135Z,100.00
2022-10-26T20:43:40.500Z,100.00
2022-10-26T20:46:29.064Z,100.00
2022-10-26T20:49:17.433Z,100.00
2022-10-26T20:52:20.710Z,100.00
2022-10-26T20:55:22.608Z,100.00
2022-10-26T20:58:14.535Z,100.00
2022-10-26T21:01:04.849Z,100.00
2022-10-26T21:03:53.176Z,100.00
2022-10-26T21:06:41.046Z,100.00
2022-10-26T21:09:31.776Z,100.00
2022-10-26T21:12:24.913Z,100.00
2022-10-26T21:15:12.867Z,100.00
2022-10-26T21:18:00.858Z,100.00
2022-10-26T21:20:48.755Z,100.00
2022-10-26T21:23:39.250Z,100.00
2022-10-26T21:26:27.113Z,100.00
2022-10-26T21:29:16.512Z,100.00
2022-10-26T21:32:04.758Z,100.00
2022-10-26T21:34:52.756Z,100.00
2022-10-26T21:37:40.882Z,100.00
2022-10-26T21:40:28.928Z,100.00
2022-10-26T21:43:18.952Z,100.00
2022-10-26T21:46:09.827Z,100.00
2022-10-26T21:48:57.868Z,100.00
2022-10-26T21:51:46.058Z,100.00
2022-10-26T21:54:34.072Z,100.00
2022-10-26T21:57:22.088Z,100.00
2022-10-26T22:00:10.901Z,100.00
2022-10-26T22:03:02.595Z,100.00
2022-10-26T22:05:52.897Z,100.00
2022-10-26T22:08:41.447Z,100.00
2022-10-26T22:11:29.548Z,100.00
2022-10-26T22:14:18.921Z,100.00
2022-10-26T22:17:07.086Z,100.00
2022-10-26T22:19:56.464Z,100.00
2022-10-26T22:22:44.739Z,100.00
2022-10-26T22:25:33.244Z,100.00
2022-10-26T22:28:21.160Z,100.00
2022-10-26T22:31:11.016Z,100.00
2022-10-26T22:34:04.811Z,100.00
2022-10-26T22:36:56.769Z,100.00
2022-10-26T22:39:44.710Z,100.00
2022-10-26T22:42:32.633Z,100.00
2022-10-26T22:45:20.551Z,100.00
2022-10-26T22:51:06.633Z,100.00
2022-10-26T22:53:57.926Z,100.00
2022-10-26T22:56:45.796Z,100.00
2022-10-26T22:59:33.706Z,100.00
2022-10-26T23:02:21.624Z,100.00
2022-10-26T23:05:09.968Z,100.00
2022-10-26T23:07:58.162Z,100.00
2022-10-26T23:10:47.473Z,100.00
2022-10-26T23:13:35.369Z,100.00
2022-10-26T23:16:23.522Z,100.00
2022-10-26T23:19:11.489Z,100.00
2022-10-26T23:21:59.413Z,100.00
2022-10-26T23:24:47.297Z,100.00
2022-10-26T23:27:36.517Z,100.00
2022-10-26T23:30:24.392Z,100.00
2022-10-26T23:33:12.304Z,100.00
2022-10-26T23:36:01.169Z,100.00
2022-10-26T23:38:49.422Z,100.00
2022-10-26T23:41:37.321Z,100.00
2022-10-26T23:44:26.626Z,100.00
2022-10-26T23:47:14.526Z,100.00
2022-10-26T23:50:02.476Z,100.00
2022-10-26T23:52:50.645Z,100.00
2022-10-26T23:55:38.837Z,100.00
2022-10-26T23:58:26.767Z,100.00
